»·PEaware :: SWA623 KSAN-KLAS

SWA623 :: KSAN-KLAS

FLIGHT INFORMATION

Flight Status: Arrived
Operator:
Southwest Airlines
More flights by this operator :: More flights under this callsign
Pilot: Ben F. (2808)
Aircraft: BOEING 737-800
(B738)
More flights by this aircraft type
Origin: KSAN San Diego Intl-Lindbergh
United States
Destination: KLAS McCarran Intl
United States
More flights between these airports :: More routes between these airports
Route: +PADRZ2 CHKNN SEBBY YELAH MISEN KEPEC6
File this flight plan on PilotEdge
Remarks:
Altitude:
(Current/Filed)
29,000ft
Speed:
(Current/Filed)
465kts
Departed: 06-Jun-20 10:01 AM
Arrived: 06-Jun-20 10:57 AM
Distance/Time
Traveled:
225nm/0:55
Distance/Time
To Go:
Arrived

Flight Plot

Page will automatically refresh every two minutes.

Flight plan parsing failed; only flown route is shown


Map Options




Map Legend


Flown Route
Filed Route
Departure Airport
Arrival Airport
Navaid (VOR, NDB)
Fix

Horizontal Profiles

Position Reports

Time Latitude Longitude Heading Altitude Ground
Speed
06-Jun-20 09:42 32.732490 -117.195447 0 23ft 0kts
06-Jun-20 09:43 32.732490 -117.195447 312 23ft 0kts
06-Jun-20 09:44 32.732490 -117.195447 312 23ft 0kts
06-Jun-20 09:45 32.732490 -117.195447 312 23ft 0kts
06-Jun-20 09:47 32.732490 -117.195447 312 23ft 0kts
06-Jun-20 09:48 32.732490 -117.195447 312 23ft 0kts
06-Jun-20 09:49 32.732490 -117.195447 312 23ft 0kts
06-Jun-20 09:50 32.732490 -117.195447 312 23ft 0kts
06-Jun-20 09:51 32.732490 -117.195447 312 23ft 0kts
06-Jun-20 09:52 32.732249 -117.195136 317 23ft 2kts
06-Jun-20 09:53 32.731954 -117.194983 16 23ft 0kts
06-Jun-20 09:54 32.731955 -117.194983 16 23ft 0kts
06-Jun-20 09:55 32.732429 -117.194762 27 23ft 7kts
06-Jun-20 09:56 32.732977 -117.191592 106 23ft 21kts
06-Jun-20 09:57 32.731412 -117.185126 105 23ft 18kts
06-Jun-20 09:58 32.729992 -117.179180 106 23ft 14kts
06-Jun-20 09:59 32.729540 -117.176697 70 23ft 0kts
06-Jun-20 10:00 32.730219 -117.175872 294 23ft 9kts
06-Jun-20 10:01 32.737240 -117.203860 287 431ft 172kts
06-Jun-20 10:01 32.754555 -117.247414 305 2890ft 184kts
06-Jun-20 10:03 32.799809 -117.318810 306 5089ft 261kts
06-Jun-20 10:04 32.844907 -117.388399 306 8293ft 269kts
06-Jun-20 10:04 32.883324 -117.448126 305 10745ft 278kts
06-Jun-20 10:06 32.945395 -117.544631 305 12505ft 341kts
06-Jun-20 10:06 32.994114 -117.620593 304 14682ft 350kts
06-Jun-20 10:08 33.064540 -117.728331 309 16707ft 357kts
06-Jun-20 10:08 33.127803 -117.794635 314 18640ft 368kts
06-Jun-20 10:09 33.205635 -117.873804 315 20664ft 380kts
06-Jun-20 10:10 33.288738 -117.954606 315 22551ft 390kts
06-Jun-20 10:11 33.374099 -118.037653 315 24233ft 399kts
06-Jun-20 10:12 33.460641 -118.122592 315 25771ft 406kts
06-Jun-20 10:13 33.546353 -118.206994 315 27154ft 414kts
06-Jun-20 10:14 33.645012 -118.274386 329 28722ft 424kts
06-Jun-20 10:15 33.762089 -118.300519 8 29028ft 466kts
06-Jun-20 10:16 33.867893 -118.204182 43 29025ft 494kts
06-Jun-20 10:17 33.956128 -118.078800 44 29015ft 496kts
06-Jun-20 10:18 34.044923 -117.951294 44 29020ft 496kts
06-Jun-20 10:19 34.133638 -117.824265 44 29027ft 495kts
06-Jun-20 10:20 34.222384 -117.696686 44 29026ft 495kts
06-Jun-20 10:21 34.310751 -117.568950 44 29012ft 496kts
06-Jun-20 10:22 34.399364 -117.440361 45 28987ft 496kts
06-Jun-20 10:23 34.487581 -117.311875 45 28961ft 496kts
06-Jun-20 10:24 34.575470 -117.183402 45 28959ft 496kts
06-Jun-20 10:25 34.663583 -117.054131 45 28945ft 496kts
06-Jun-20 10:26 34.751444 -116.924756 45 28908ft 496kts
06-Jun-20 10:27 34.838820 -116.795628 45 28861ft 486kts
06-Jun-20 10:28 34.924044 -116.669780 45 28215ft 474kts
06-Jun-20 10:29 35.006758 -116.546735 46 26192ft 464kts
06-Jun-20 10:30 35.087592 -116.425949 46 24206ft 453kts
06-Jun-20 10:31 35.171677 -116.315813 40 22525ft 437kts
06-Jun-20 10:32 35.255555 -116.211389 41 20916ft 422kts
06-Jun-20 10:33 35.336051 -116.109948 41 19362ft 410kts
06-Jun-20 10:34 35.414644 -116.011343 41 17862ft 398kts
06-Jun-20 10:35 35.491170 -115.914946 42 16586ft 390kts
06-Jun-20 10:36 35.565303 -115.820700 43 15159ft 377kts
06-Jun-20 10:37 35.636251 -115.730142 43 13819ft 350kts
06-Jun-20 10:38 35.700636 -115.647992 44 13028ft 319kts
06-Jun-20 10:39 35.767944 -115.578472 13 13026ft 316kts
06-Jun-20 10:40 35.854746 -115.569879 358 13029ft 312kts
06-Jun-20 10:41 35.941518 -115.565209 0 13026ft 312kts
06-Jun-20 10:42 36.001461 -115.495138 82 12248ft 326kts
06-Jun-20 10:43 36.024864 -115.392757 73 11192ft 298kts
06-Jun-20 10:44 36.025644 -115.296003 97 10607ft 267kts
06-Jun-20 10:45 36.018648 -115.203912 97 9164ft 266kts
06-Jun-20 10:46 36.012459 -115.112676 97 8288ft 262kts
06-Jun-20 10:47 36.007182 -115.026865 97 8020ft 233kts
06-Jun-20 10:48 36.002628 -114.950618 98 7755ft 224kts
06-Jun-20 10:49 35.997882 -114.872946 97 6374ft 226kts
06-Jun-20 10:50 36.019101 -114.810636 12 5179ft 223kts
06-Jun-20 10:51 36.059836 -114.848797 278 4975ft 211kts
06-Jun-20 10:52 36.070470 -114.920991 276 4910ft 204kts
06-Jun-20 10:53 36.073796 -114.990115 266 4313ft 203kts
06-Jun-20 10:54 36.073731 -115.055731 265 3299ft 177kts
06-Jun-20 10:55 36.073700 -115.111853 265 2442ft 152kts
06-Jun-20 10:56 36.074282 -115.144936 303 2189ft 18kts
06-Jun-20 10:57 36.076573 -115.146557 359 2189ft 12kts
06-Jun-20 10:58 36.078765 -115.146149 25 2189ft 3kts
06-Jun-20 10:59 36.079674 -115.146234 353 2189ft 0kts
06-Jun-20 11:00 36.079674 -115.146234 353 2189ft 0kts
06-Jun-20 11:01 36.079674 -115.146234 353 2189ft 0kts
06-Jun-20 11:02 36.079674 -115.146234 353 2189ft 0kts
06-Jun-20 11:03 36.079674 -115.146234 353 2189ft 0kts
06-Jun-20 11:04 36.079674 -115.146234 353 2189ft 0kts
06-Jun-20 11:05 36.079674 -115.146234 353 2189ft 0kts
06-Jun-20 11:06 36.079674 -115.146234 353 2189ft 0kts
06-Jun-20 11:07 36.079674 -115.146234 353 2189ft 0kts
06-Jun-20 11:08 36.079674 -115.146234 353 2189ft 0kts

Navigation Log

Ident Type
Flight plan parsing failed, navigation log unavailable